createdAt,value
2023-11-28T00:01:18.833Z,1.92
2023-11-28T00:03:45.860Z,2.58
2023-11-28T00:06:16.611Z,2.90
2023-11-28T00:08:45.284Z,2.15
2023-11-28T00:11:17.862Z,2.08
2023-11-28T00:13:44.768Z,2.47
2023-11-28T00:16:11.825Z,1.85
2023-11-28T00:18:38.819Z,2.35
2023-11-28T00:21:06.530Z,2.28
2023-11-28T00:23:33.468Z,2.50
2023-11-28T00:26:01.956Z,3.10
2023-11-28T00:28:29.035Z,3.20
2023-11-28T00:30:56.075Z,2.88
2023-11-28T00:33:23.247Z,2.65
2023-11-28T00:35:50.173Z,3.15
2023-11-28T00:38:17.100Z,2.80
2023-11-28T00:40:45.503Z,3.17
2023-11-28T00:43:16.693Z,3.13
2023-11-28T00:45:43.835Z,3.53
2023-11-28T00:48:10.809Z,3.25
2023-11-28T00:50:37.836Z,3.63
2023-11-28T00:53:05.716Z,3.20
2023-11-28T00:55:32.763Z,3.53
2023-11-28T00:57:59.800Z,4.30
2023-11-28T01:00:28.192Z,2.58
2023-11-28T01:02:55.366Z,3.72
2023-11-28T01:05:22.550Z,3.70
2023-11-28T01:07:49.679Z,3.58
2023-11-28T01:10:16.755Z,4.30
2023-11-28T01:12:43.622Z,4.25
2023-11-28T01:15:11.871Z,4.25
2023-11-28T01:17:40.256Z,5.00
2023-11-28T01:20:09.244Z,5.85
2023-11-28T01:22:36.244Z,5.65
2023-11-28T01:25:04.682Z,4.82
2023-11-28T01:27:31.535Z,5.57
2023-11-28T01:29:58.430Z,5.68
2023-11-28T01:32:25.423Z,5.28
2023-11-28T01:34:53.786Z,4.30
2023-11-28T01:37:20.675Z,7.00
2023-11-28T01:39:47.628Z,6.18
2023-11-28T01:42:14.759Z,7.10
2023-11-28T01:44:41.699Z,7.03
2023-11-28T01:47:08.887Z,5.93
2023-11-28T01:49:38.287Z,4.72
2023-11-28T01:52:07.672Z,5.50
2023-11-28T01:54:34.899Z,6.35
2023-11-28T01:57:02.582Z,7.22
2023-11-28T01:59:32.303Z,5.53
2023-11-28T02:01:59.381Z,4.88
2023-11-28T02:04:26.629Z,5.47
2023-11-28T02:06:53.661Z,6.22
2023-11-28T02:09:22.091Z,5.60
2023-11-28T02:11:49.456Z,4.93
2023-11-28T02:14:16.427Z,5.50
2023-11-28T02:16:43.360Z,5.78
2023-11-28T02:19:10.333Z,6.10
2023-11-28T02:21:37.631Z,6.72
2023-11-28T02:24:07.632Z,5.05
2023-11-28T02:26:35.910Z,5.18
2023-11-28T02:29:02.900Z,5.97
2023-11-28T02:31:30.453Z,5.30
2023-11-28T02:33:57.542Z,5.55
2023-11-28T02:36:24.579Z,6.50
2023-11-28T02:38:52.355Z,6.05
2023-11-28T02:41:19.936Z,6.03
2023-11-28T02:43:48.230Z,7.00
2023-11-28T02:46:15.247Z,5.90
2023-11-28T02:48:43.762Z,6.18
2023-11-28T02:51:11.532Z,6.43
2023-11-28T02:53:40.180Z,6.82
2023-11-28T02:56:10.669Z,7.07
2023-11-28T02:58:38.427Z,6.43
2023-11-28T03:01:07.458Z,4.88
2023-11-28T03:03:34.358Z,5.85
2023-11-28T03:06:01.281Z,5.95
2023-11-28T03:08:28.116Z,6.10
2023-11-28T03:10:54.992Z,5.45
2023-11-28T03:13:21.944Z,5.57
2023-11-28T03:15:48.792Z,5.72
2023-11-28T03:18:17.045Z,5.22
2023-11-28T03:20:43.986Z,5.32
2023-11-28T03:23:12.362Z,5.97
2023-11-28T03:25:39.234Z,5.20
2023-11-28T03:28:06.175Z,5.43
2023-11-28T03:30:33.094Z,5.68
2023-11-28T03:33:00.032Z,5.35
2023-11-28T03:35:29.923Z,4.60
2023-11-28T03:37:58.505Z,5.95
2023-11-28T03:40:25.592Z,4.93
2023-11-28T03:42:53.495Z,4.82
2023-11-28T03:45:21.981Z,5.72
2023-11-28T03:47:48.888Z,5.07
2023-11-28T03:50:16.018Z,5.10
2023-11-28T03:52:44.883Z,4.65
2023-11-28T03:55:12.021Z,5.43
2023-11-28T03:57:38.969Z,5.22
2023-11-28T04:00:07.397Z,4.85
2023-11-28T04:02:34.608Z,4.45
2023-11-28T04:05:04.460Z,4.40
2023-11-28T04:07:31.494Z,5.30
2023-11-28T04:09:59.757Z,5.47
2023-11-28T04:12:27.572Z,4.63
2023-11-28T04:14:54.492Z,4.93
2023-11-28T04:17:21.504Z,5.25
2023-11-28T04:19:48.486Z,5.47
2023-11-28T04:22:15.472Z,4.30
2023-11-28T04:24:44.650Z,4.47
2023-11-28T04:27:16.143Z,4.00
2023-11-28T04:29:44.076Z,4.50
2023-11-28T04:32:11.792Z,4.22
2023-11-28T04:34:39.091Z,3.20
2023-11-28T04:37:06.131Z,4.15
2023-11-28T04:39:35.010Z,3.95
2023-11-28T04:42:02.276Z,3.50
2023-11-28T04:44:30.545Z,3.42
2023-11-28T04:46:57.549Z,3.10
2023-11-28T04:49:25.070Z,3.28
2023-11-28T04:51:52.839Z,2.85
2023-11-28T04:54:20.469Z,2.25
2023-11-28T04:56:47.378Z,2.90
2023-11-28T04:59:14.967Z,2.58
2023-11-28T05:01:47.625Z,2.47
2023-11-28T05:04:15.553Z,2.15
2023-11-28T05:06:43.025Z,2.45
2023-11-28T05:09:10.339Z,2.50
2023-11-28T05:11:38.752Z,2.20
2023-11-28T05:14:08.123Z,2.63
2023-11-28T05:16:45.327Z,2.40
2023-11-28T05:19:20.774Z,2.35
2023-11-28T05:21:47.651Z,2.70
2023-11-28T05:24:14.590Z,2.30
2023-11-28T05:26:42.256Z,2.10
2023-11-28T05:29:09.206Z,2.55
2023-11-28T05:31:36.489Z,2.30
2023-11-28T05:34:03.636Z,2.28
2023-11-28T05:36:31.905Z,2.60
2023-11-28T05:39:00.546Z,2.20
2023-11-28T05:41:27.677Z,2.72
2023-11-28T05:43:54.984Z,2.63
2023-11-28T05:46:22.126Z,2.50
2023-11-28T05:48:49.671Z,2.55
2023-11-28T05:51:16.838Z,3.22
2023-11-28T05:53:45.427Z,2.58
2023-11-28T05:56:14.284Z,2.78
2023-11-28T05:58:41.858Z,3.20
2023-11-28T06:01:13.497Z,3.38
2023-11-28T06:03:40.537Z,3.03
2023-11-28T06:06:08.161Z,3.20
2023-11-28T06:08:35.183Z,3.58
2023-11-28T06:11:03.601Z,3.53
2023-11-28T06:13:30.535Z,4.00
2023-11-28T06:15:57.627Z,3.40
2023-11-28T06:18:24.514Z,3.63
2023-11-28T06:20:51.348Z,3.72
2023-11-28T06:23:20.700Z,3.58
2023-11-28T06:25:48.059Z,3.42
2023-11-28T06:28:16.385Z,3.92
2023-11-28T06:30:43.873Z,3.45
2023-11-28T06:33:11.955Z,3.33
2023-11-28T06:35:39.456Z,2.92
2023-11-28T06:38:06.430Z,4.05
2023-11-28T06:40:33.987Z,3.75
2023-11-28T06:43:00.955Z,4.05
2023-11-28T06:45:31.051Z,3.75
2023-11-28T06:47:58.435Z,3.58
2023-11-28T06:50:25.802Z,3.13
2023-11-28T06:52:53.880Z,3.13
2023-11-28T06:55:22.782Z,3.17
2023-11-28T06:57:53.008Z,2.65
2023-11-28T07:00:20.041Z,3.22
2023-11-28T07:02:48.882Z,3.60
2023-11-28T07:05:17.926Z,3.08
2023-11-28T07:07:44.867Z,3.15
2023-11-28T07:10:11.916Z,3.35
2023-11-28T07:12:38.732Z,3.00
2023-11-28T07:15:06.461Z,3.03
2023-11-28T07:17:34.020Z,2.90
2023-11-28T07:20:02.771Z,3.28
2023-11-28T07:22:29.815Z,3.30
2023-11-28T07:25:00.000Z,2.60
2023-11-28T07:27:28.468Z,3.78
2023-11-28T07:29:56.139Z,2.80
2023-11-28T07:32:25.095Z,3.22
2023-11-28T07:34:52.149Z,2.88
2023-11-28T07:37:20.451Z,3.28
2023-11-28T07:39:47.329Z,3.30
2023-11-28T07:42:16.786Z,3.33
2023-11-28T07:44:45.858Z,3.63
2023-11-28T07:47:15.807Z,2.92
2023-11-28T07:49:43.758Z,3.60
2023-11-28T07:52:14.035Z,3.92
2023-11-28T07:54:42.278Z,4.43
2023-11-28T07:57:09.100Z,4.45
2023-11-28T07:59:36.418Z,4.80
2023-11-28T08:02:03.729Z,4.20
2023-11-28T08:04:30.827Z,3.70
2023-11-28T08:06:57.967Z,3.85
2023-11-28T08:09:25.379Z,4.35
2023-11-28T08:11:54.618Z,4.28
2023-11-28T08:14:22.269Z,4.25
2023-11-28T08:16:49.548Z,3.90
2023-11-28T08:19:17.777Z,4.25
2023-11-28T08:21:44.690Z,3.95
2023-11-28T08:24:15.933Z,3.95
2023-11-28T08:26:45.106Z,3.35
2023-11-28T08:29:13.525Z,3.92
2023-11-28T08:31:41.348Z,3.75
2023-11-28T08:34:08.654Z,4.10
2023-11-28T08:36:35.836Z,3.78
2023-11-28T08:39:02.671Z,4.45
2023-11-28T08:41:29.767Z,4.50
2023-11-28T08:43:56.940Z,4.22
2023-11-28T08:46:43.453Z,4.60
2023-11-28T08:49:12.429Z,4.45
2023-11-28T08:51:42.168Z,4.43
2023-11-28T08:54:09.896Z,4.63
2023-11-28T08:56:36.792Z,3.75
2023-11-28T09:03:44.350Z,4.60
2023-11-28T09:06:18.533Z,3.75
2023-11-28T09:08:47.631Z,3.72
2023-11-28T09:11:16.705Z,3.70
2023-11-28T09:13:46.704Z,3.67
2023-11-28T09:16:25.484Z,3.72
2023-11-28T09:18:55.732Z,4.22
2023-11-28T09:21:31.314Z,4.63
2023-11-28T09:23:58.969Z,3.78
2023-11-28T09:26:28.192Z,4.43
2023-11-28T09:29:00.400Z,4.10
2023-11-28T09:31:29.813Z,3.55
2023-11-28T09:33:59.116Z,3.92
2023-11-28T09:36:26.253Z,4.15
2023-11-28T09:38:54.240Z,4.38
2023-11-28T09:41:36.179Z,4.18
2023-11-28T09:44:09.958Z,4.93
2023-11-28T09:46:38.445Z,8.45
2023-11-28T09:49:10.191Z,4.30
2023-11-28T09:51:40.361Z,4.47
2023-11-28T09:54:08.530Z,5.68
2023-11-28T09:56:35.803Z,4.68
2023-11-28T09:59:07.352Z,4.22
2023-11-28T10:01:39.059Z,4.53
2023-11-28T10:04:08.178Z,4.20
2023-11-28T10:06:37.734Z,4.65
2023-11-28T10:09:07.149Z,3.80
2023-11-28T10:11:37.509Z,3.63
2023-11-28T10:14:04.505Z,4.05
2023-11-28T10:16:44.276Z,3.67
2023-11-28T10:19:13.056Z,4.10
2023-11-28T10:21:40.263Z,4.50
2023-11-28T10:24:08.915Z,4.75
2023-11-28T10:26:35.908Z,3.85
2023-11-28T10:29:09.405Z,3.70
2023-11-28T10:34:09.628Z,3.35
2023-11-28T10:36:47.582Z,3.42
2023-11-28T10:39:19.942Z,4.18
2023-11-28T10:41:48.329Z,3.38
2023-11-28T10:44:15.689Z,3.83
2023-11-28T10:46:42.729Z,3.90
2023-11-28T10:49:11.209Z,4.18
2023-11-28T10:51:39.389Z,3.90
2023-11-28T10:54:09.132Z,4.10
2023-11-28T10:56:47.367Z,3.92
2023-11-28T10:59:23.373Z,4.28
2023-11-28T11:01:51.665Z,3.78
2023-11-28T11:04:18.879Z,3.95
2023-11-28T11:06:45.860Z,4.30
2023-11-28T11:09:14.125Z,4.40
2023-11-28T11:11:42.872Z,4.40
2023-11-28T11:14:16.713Z,4.20
2023-11-28T11:16:51.523Z,4.40
2023-11-28T11:19:19.360Z,3.58
2023-11-28T11:21:52.000Z,4.45
2023-11-28T11:24:21.067Z,3.97
2023-11-28T11:26:50.742Z,4.47
2023-11-28T11:29:44.293Z,4.85
2023-11-28T11:32:12.837Z,5.07
2023-11-28T11:34:42.082Z,4.35
2023-11-28T11:37:11.230Z,4.68
2023-11-28T11:39:40.624Z,4.60
2023-11-28T11:42:13.309Z,6.32
2023-11-28T11:44:44.095Z,7.97
2023-11-28T11:47:16.083Z,4.60
2023-11-28T11:49:44.404Z,4.68
2023-11-28T11:52:13.282Z,5.30
2023-11-28T11:54:42.680Z,5.43
2023-11-28T11:57:09.828Z,5.18
2023-11-28T11:59:37.441Z,5.20
2023-11-28T12:02:05.528Z,5.30
2023-11-28T12:04:32.981Z,5.57
2023-11-28T12:07:05.202Z,5.18
2023-11-28T12:09:32.168Z,5.20
2023-11-28T12:12:00.528Z,4.20
2023-11-28T12:14:27.520Z,4.93
2023-11-28T12:16:54.952Z,4.32
2023-11-28T12:19:22.055Z,4.55
2023-11-28T12:21:49.007Z,4.82
2023-11-28T12:24:15.945Z,4.80
2023-11-28T12:26:43.296Z,5.10
2023-11-28T12:29:12.837Z,4.38
2023-11-28T12:31:39.952Z,5.13
2023-11-28T12:34:08.430Z,4.72
2023-11-28T12:36:35.285Z,4.95
2023-11-28T12:39:02.589Z,5.25
2023-11-28T12:41:34.989Z,5.95
2023-11-28T12:44:02.081Z,6.53
2023-11-28T12:46:31.253Z,6.22
2023-11-28T12:48:58.223Z,5.50
2023-11-28T12:51:25.022Z,5.10
2023-11-28T12:53:52.171Z,4.95
2023-11-28T12:56:19.872Z,4.63
2023-11-28T12:58:46.793Z,4.38
2023-11-28T13:01:13.911Z,4.00
2023-11-28T13:03:43.728Z,4.30
2023-11-28T13:06:10.917Z,4.97
2023-11-28T13:08:37.878Z,4.50
2023-11-28T13:11:05.530Z,5.72
2023-11-28T13:13:32.517Z,3.95
2023-11-28T13:15:59.420Z,3.97
2023-11-28T13:18:26.404Z,3.97
2023-11-28T13:20:54.802Z,3.90
2023-11-28T13:23:21.794Z,3.22
2023-11-28T13:25:48.701Z,3.03
2023-11-28T13:28:15.663Z,3.38
2023-11-28T13:30:42.773Z,4.18
2023-11-28T13:33:09.699Z,3.58
2023-11-28T13:35:39.489Z,3.83
2023-11-28T13:38:07.971Z,3.67
2023-11-28T13:40:34.816Z,3.90
2023-11-28T13:43:01.678Z,3.85
2023-11-28T13:45:34.608Z,3.45
2023-11-28T13:48:02.550Z,3.65
2023-11-28T13:50:29.440Z,3.30
2023-11-28T13:52:56.502Z,3.90
2023-11-28T13:55:24.955Z,3.92
2023-11-28T13:57:51.812Z,5.05
2023-11-28T14:00:18.987Z,5.07
2023-11-28T14:02:46.372Z,3.60
2023-11-28T14:05:13.648Z,4.30
2023-11-28T14:07:40.864Z,4.60
2023-11-28T14:10:09.285Z,4.25
2023-11-28T14:12:38.024Z,3.80
2023-11-28T14:15:08.789Z,4.55
2023-11-28T14:17:36.559Z,5.00
2023-11-28T14:20:09.763Z,6.20
2023-11-28T14:22:38.135Z,5.35
2023-11-28T14:25:05.752Z,5.15
2023-11-28T14:27:32.651Z,5.00
2023-11-28T14:30:00.912Z,5.28
2023-11-28T14:32:27.810Z,5.35
2023-11-28T14:34:56.836Z,4.88
2023-11-28T14:37:23.827Z,5.53
2023-11-28T14:39:50.825Z,6.25
2023-11-28T14:42:17.770Z,6.30
2023-11-28T14:44:44.588Z,7.07
2023-11-28T14:47:12.852Z,6.53
2023-11-28T14:49:39.798Z,6.95
2023-11-28T14:52:07.086Z,7.18
2023-11-28T14:54:33.925Z,7.75
2023-11-28T14:57:00.858Z,5.20
2023-11-28T14:59:27.749Z,5.13
2023-11-28T15:01:54.943Z,4.60
2023-11-28T15:04:23.244Z,5.07
2023-11-28T15:06:52.525Z,4.18
2023-11-28T15:09:19.447Z,4.90
2023-11-28T15:11:46.411Z,4.10
2023-11-28T15:14:13.494Z,4.82
2023-11-28T15:16:40.441Z,4.75
2023-11-28T15:19:07.420Z,4.57
2023-11-28T15:21:35.732Z,4.10
2023-11-28T15:24:02.974Z,4.07
2023-11-28T15:26:30.076Z,4.22
2023-11-28T15:28:57.072Z,3.83
2023-11-28T15:31:24.116Z,4.30
2023-11-28T15:33:51.037Z,4.03
2023-11-28T15:36:19.031Z,4.40
2023-11-28T15:38:47.453Z,4.18
2023-11-28T15:41:14.729Z,4.22
2023-11-28T15:43:41.727Z,4.40
2023-11-28T15:46:08.632Z,4.50
2023-11-28T15:48:35.691Z,5.32
2023-11-28T15:51:02.589Z,5.10
2023-11-28T15:53:29.478Z,4.85
2023-11-28T15:55:57.882Z,5.70
2023-11-28T15:58:24.848Z,6.20
2023-11-28T16:00:51.801Z,5.65
2023-11-28T16:03:18.723Z,5.35
2023-11-28T16:05:47.392Z,5.32
2023-11-28T16:08:14.468Z,4.97
2023-11-28T16:10:41.391Z,4.65
2023-11-28T16:13:09.669Z,5.75
2023-11-28T16:15:36.492Z,5.50
2023-11-28T16:18:03.664Z,4.53
2023-11-28T16:20:33.936Z,4.55
2023-11-28T16:23:01.479Z,4.35
2023-11-28T16:25:28.363Z,6.07
2023-11-28T16:27:55.301Z,3.60
2023-11-28T16:30:23.610Z,4.53
2023-11-28T16:32:50.695Z,4.10
2023-11-28T16:35:17.701Z,15.98
2023-11-28T16:37:44.781Z,6.85
2023-11-28T16:40:11.791Z,7.72
2023-11-28T16:42:39.963Z,5.05
2023-11-28T16:45:07.662Z,4.20
2023-11-28T16:47:35.992Z,4.80
2023-11-28T16:50:03.364Z,4.90
2023-11-28T16:52:30.652Z,4.60
2023-11-28T16:54:57.663Z,4.72
2023-11-28T16:57:26.345Z,5.10
2023-11-28T16:59:54.186Z,4.82
2023-11-28T17:02:21.253Z,4.85
2023-11-28T17:04:49.674Z,4.68
2023-11-28T17:07:17.894Z,4.47
2023-11-28T17:09:44.674Z,4.60
2023-11-28T17:12:11.610Z,5.03
2023-11-28T17:14:40.035Z,4.82
2023-11-28T17:17:07.223Z,4.47
2023-11-28T17:19:34.100Z,5.97
2023-11-28T17:22:02.334Z,5.15
2023-11-28T17:24:29.968Z,4.75
2023-11-28T17:26:56.856Z,4.90
2023-11-28T17:29:23.772Z,5.00
2023-11-28T17:31:54.769Z,4.28
2023-11-28T17:34:21.871Z,4.47
2023-11-28T17:36:48.702Z,4.47
2023-11-28T17:39:16.890Z,4.50
2023-11-28T17:41:43.723Z,4.25
2023-11-28T17:44:10.814Z,6.43
2023-11-28T17:46:37.624Z,16.38
2023-11-28T17:49:05.395Z,27.98
2023-11-28T17:51:32.279Z,20.17
2023-11-28T17:53:59.097Z,24.40
2023-11-28T17:56:27.308Z,23.25
2023-11-28T17:58:54.304Z,26.63
2023-11-28T18:01:22.355Z,28.33
2023-11-28T18:03:49.429Z,26.30
2023-11-28T18:06:16.344Z,18.98
2023-11-28T18:08:43.193Z,18.17
2023-11-28T18:11:11.317Z,11.20
2023-11-28T18:13:40.061Z,8.23
2023-11-28T18:16:07.156Z,9.05
2023-11-28T18:18:34.322Z,8.05
2023-11-28T18:21:11.416Z,8.45
2023-11-28T18:23:45.461Z,8.57
2023-11-28T18:26:13.506Z,7.97
2023-11-28T18:28:41.889Z,7.25
2023-11-28T18:31:11.292Z,20.52
2023-11-28T18:33:38.794Z,13.02
2023-11-28T18:36:07.995Z,15.00
2023-11-28T18:38:36.247Z,17.73
2023-11-28T18:41:04.466Z,14.70
2023-11-28T18:43:31.354Z,23.92
2023-11-28T18:46:02.680Z,30.85
2023-11-28T18:48:30.978Z,37.05
2023-11-28T18:50:58.191Z,39.30
2023-11-28T18:53:25.138Z,39.58
2023-11-28T18:55:52.050Z,25.08
2023-11-28T18:58:19.007Z,35.97
2023-11-28T19:00:46.358Z,49.55
2023-11-28T19:03:14.889Z,28.55
2023-11-28T19:05:41.876Z,17.92
2023-11-28T19:08:10.068Z,11.15
2023-11-28T19:10:37.109Z,9.05
2023-11-28T19:13:04.094Z,7.28
2023-11-28T19:15:30.939Z,7.63
2023-11-28T19:17:57.822Z,9.23
2023-11-28T19:20:26.286Z,8.25
2023-11-28T19:22:53.212Z,10.38
2023-11-28T19:25:20.368Z,9.75
2023-11-28T19:27:48.353Z,9.57
2023-11-28T19:30:21.385Z,8.20
2023-11-28T19:32:51.165Z,7.72
2023-11-28T19:35:18.154Z,7.15
2023-11-28T19:37:46.692Z,7.53
2023-11-28T19:40:13.584Z,8.52
2023-11-28T19:42:40.515Z,7.88
2023-11-28T19:45:08.153Z,7.47
2023-11-28T19:47:35.186Z,8.30
2023-11-28T19:50:02.108Z,6.82
2023-11-28T19:52:29.076Z,6.43
2023-11-28T19:54:57.324Z,7.55
2023-11-28T19:57:26.348Z,13.20
2023-11-28T19:59:53.751Z,14.30
2023-11-28T20:02:21.245Z,12.93
2023-11-28T20:04:48.776Z,16.52
2023-11-28T20:07:16.634Z,17.17
2023-11-28T20:09:43.611Z,17.23
2023-11-28T20:12:12.017Z,13.70
2023-11-28T20:14:39.526Z,8.75
2023-11-28T20:17:07.578Z,7.93
2023-11-28T20:19:34.686Z,7.22
2023-11-28T20:22:01.610Z,13.05
2023-11-28T20:24:28.465Z,19.80
2023-11-28T20:26:55.331Z,17.23
2023-11-28T20:29:23.723Z,12.98
2023-11-28T20:31:52.991Z,16.80
2023-11-28T20:34:20.068Z,16.98
2023-11-28T20:36:46.976Z,12.15
2023-11-28T20:39:13.793Z,18.83
2023-11-28T20:41:40.778Z,8.93
2023-11-28T20:44:08.696Z,5.32
2023-11-28T20:46:38.429Z,5.82
2023-11-28T20:49:05.417Z,7.18
2023-11-28T20:51:32.383Z,7.70
2023-11-28T20:53:59.269Z,7.28
2023-11-28T20:56:26.185Z,6.10
2023-11-28T20:58:53.252Z,13.80
2023-11-28T21:01:20.621Z,10.90
2023-11-28T21:03:48.903Z,16.13
2023-11-28T21:06:15.997Z,13.60
2023-11-28T21:08:43.108Z,13.38
2023-11-28T21:11:10.083Z,15.38
2023-11-28T21:13:36.988Z,16.65
2023-11-28T21:16:03.948Z,16.13
2023-11-28T21:18:30.874Z,11.75
2023-11-28T21:20:59.173Z,17.70
2023-11-28T21:23:26.123Z,27.75
2023-11-28T21:25:53.002Z,16.52
2023-11-28T21:28:19.987Z,15.20
2023-11-28T21:30:47.002Z,16.70
2023-11-28T21:33:14.567Z,8.90
2023-11-28T21:35:42.541Z,9.57
2023-11-28T21:38:10.857Z,19.77
2023-11-28T21:40:43.882Z,18.63
2023-11-28T21:43:11.297Z,16.67
2023-11-28T21:45:38.179Z,20.75
2023-11-28T21:48:15.238Z,20.65
2023-11-28T21:50:50.561Z,19.90
2023-11-28T21:53:19.460Z,18.02
2023-11-28T21:55:46.504Z,11.77
2023-11-28T21:58:13.440Z,10.77
2023-11-28T22:00:40.383Z,12.13
2023-11-28T22:03:10.148Z,16.55
2023-11-28T22:05:37.677Z,13.20
2023-11-28T22:08:04.851Z,14.10
2023-11-28T22:10:33.124Z,9.65
2023-11-28T22:12:59.961Z,12.07
2023-11-28T22:15:30.776Z,12.82
2023-11-28T22:17:57.798Z,11.75
2023-11-28T22:20:24.830Z,13.40
2023-11-28T22:22:53.408Z,10.70
2023-11-28T22:25:20.544Z,8.50
2023-11-28T22:27:48.843Z,10.02
2023-11-28T22:30:15.881Z,8.18
2023-11-28T22:32:42.878Z,6.40
2023-11-28T22:35:13.041Z,10.70
2023-11-28T22:37:40.835Z,7.90
2023-11-28T22:40:10.605Z,8.60
2023-11-28T22:42:38.104Z,8.68
2023-11-28T22:45:07.208Z,13.02
2023-11-28T22:47:34.252Z,10.63
2023-11-28T22:50:01.224Z,6.35
2023-11-28T22:52:28.185Z,6.28
2023-11-28T22:54:55.034Z,6.90
2023-11-28T22:57:21.888Z,8.10
2023-11-28T22:59:48.773Z,8.02
2023-11-28T23:02:17.567Z,9.07
2023-11-28T23:04:45.034Z,8.57
2023-11-28T23:07:13.828Z,8.30
2023-11-28T23:09:40.684Z,7.88
2023-11-28T23:12:07.941Z,6.45
2023-11-28T23:14:34.856Z,8.27
2023-11-28T23:17:01.857Z,6.70
2023-11-28T23:19:30.059Z,9.93
2023-11-28T23:21:56.939Z,5.10
2023-11-28T23:24:23.745Z,8.85
2023-11-28T23:26:51.529Z,7.18
2023-11-28T23:29:18.718Z,10.27
2023-11-28T23:31:45.755Z,12.05
2023-11-28T23:34:12.677Z,7.45
2023-11-28T23:36:40.922Z,8.32
2023-11-28T23:39:08.192Z,7.03
2023-11-28T23:41:35.124Z,6.75
2023-11-28T23:44:02.096Z,7.97
2023-11-28T23:46:30.533Z,6.78
2023-11-28T23:49:04.608Z,9.43
2023-11-28T23:51:31.968Z,7.43
2023-11-28T23:54:00.176Z,7.55
2023-11-28T23:56:27.144Z,7.13
2023-11-28T23:58:54.192Z,10.05
